createdAt,value
2022-11-05T11:29:18.514Z,1.7
2022-11-05T11:34:18.867Z,1.7
2022-11-05T11:39:18.202Z,1.3
2022-11-05T11:44:18.751Z,1.3
2022-11-05T11:49:18.440Z,1.3
2022-11-05T11:54:18.610Z,1.3
2022-11-05T11:59:19.043Z,1.3
2022-11-05T12:04:20.040Z,1.3
2022-11-05T12:09:18.397Z,1.5
2022-11-05T12:14:18.942Z,1.5
2022-11-05T12:19:18.544Z,1.4
2022-11-05T12:24:19.016Z,1.4
2022-11-05T12:29:19.798Z,1.3
2022-11-05T12:39:18.507Z,1.4
2022-11-05T12:44:18.597Z,1.4
2022-11-05T12:49:18.801Z,0.9
2022-11-05T12:54:18.189Z,0.9
2022-11-05T12:59:18.341Z,1.1
2022-11-05T13:04:18.722Z,1.1
2022-11-05T13:09:19.064Z,1.6
2022-11-05T13:14:19.096Z,1.6
2022-11-05T13:19:18.457Z,1.3
2022-11-05T13:24:18.815Z,1.3
2022-11-05T13:29:18.936Z,0.9
2022-11-05T13:34:19.086Z,0.9
2022-11-05T13:39:18.319Z,1.3
2022-11-05T14:19:18.301Z,1.3
2022-11-05T14:24:18.585Z,1.3
2022-11-05T14:29:19.080Z,1
2022-11-05T14:34:18.380Z,1
2022-11-05T14:39:18.726Z,0.5
2022-11-05T14:44:18.930Z,0.5
2022-11-05T14:49:18.483Z,0.8
2022-11-05T14:54:18.624Z,0.8
2022-11-05T14:59:18.332Z,0.4
2022-11-05T15:04:19.037Z,0.4
2022-11-05T15:09:18.998Z,0.9
2022-11-05T15:14:19.059Z,0.9
2022-11-05T15:19:18.893Z,0.9
2022-11-05T15:24:19.139Z,0.9
